Ventura — ZCDT2 — position and weather

sailwx.info

Track history (hours):
 
Tides and Currents Weather Stations Pressure Air Temp Water Temp Dewpoint Dewpoint Depression Visibility Wind Speed Wind Dir Waves Ship Positions

Ventura

Last reported at 2017-Jan-21 08:00 UTC. Time now 2017-Jan-21 15:34 UTC.
Position N 41°54' W 012°48'.

Length 289 m; draft 8.6 m.

Type: Passenger vessel. MMSI: 310562000.

Wind from 340 at 15 knots

Barometer 1021.8 mb
Air temperature 13.4 ° C
Visibility: greater than 10.8 NM
Dewpoint 5.0 ° C
Water temperature 14.7 ° C

Date/timePositionNaut miles runAvg speedWind from/ knotsBaromVisibWave heightAir tempDewpointWater temp
2017-Jan-21 08:00N 41°54' W 012°48'314 9.5 340 / 151021.810.8 13.4 5.014.7
2017-Jan-19 23:00N 45°18' W 007°18'10317.2 120 / 261025.010.8 8.0 0.511.0
2017-Jan-19 17:00N 46°54' W 006°24'9217.0 070 / 331027.410.8
2017-Jan-19 11:33N 48°20' W 005°33'1425.2
2017-Jan-19 11:00N 48°30' W 005°18'510.8 030 / 241032.827.0 13.2 1.912.0
2017-Jan-19 10:33N 48°35' W 005°20'1615.8
2017-Jan-19 09:33N 48°46' W 005°03'1515.1
2017-Jan-19 08:33N 48°56' W 004°46'7145.4
2017-Jan-19 07:00N 49°12' W 003°00'3621.9 070 / 161033.910.8 12.5 2.111.8
2017-Jan-19 05:21N 49°30' W 003°48'1417.2
2017-Jan-19 04:33N 49°38' W 003°32'1717.3
2017-Jan-19 03:33N 49°49' W 003°11'1716.7
2017-Jan-19 02:33N 49°59' W 002°51'1615.6
2017-Jan-19 01:30N 50°05' W 002°27'1514.2
2017-Jan-19 00:29N 50°11' W 002°06'1213.5
2017-Jan-18 23:34N 50°17' W 001°49'1414.3
2017-Jan-18 22:34N 50°23' W 001°29'1515.1
2017-Jan-18 21:33N 50°30' W 001°07'1312.8
2017-Jan-18 20:33N 50°41' W 000°58'1413.7
2017-Jan-18 19:34N 50°47' W 001°18'9 8.8
2017-Jan-18 18:34N 50°54' W 001°26'0 0.3
2017-Jan-18 17:25N 50°54' W 001°26'0 0.0
2017-Jan-18 16:31N 50°54' W 001°26'0 0.0
2017-Jan-18 15:28N 50°54' W 001°26'0 0.0
2017-Jan-18 14:25N 50°54' W 001°26'0 0.0
2017-Jan-18 13:22N 50°54' W 001°26'0 0.0
2017-Jan-18 12:28N 50°54' W 001°26'0 0.0
2017-Jan-18 11:28N 50°54' W 001°26'0 0.0
2017-Jan-18 10:28N 50°54' W 001°26'0 0.0
2017-Jan-18 09:22N 50°54' W 001°26'0 0.0
2017-Jan-18 08:28N 50°54' W 001°26'0 0.0
2017-Jan-18 07:28N 50°54' W 001°26'0 0.0
2017-Jan-18 06:28N 50°54' W 001°26'3 3.6
2017-Jan-18 05:34N 50°52' W 001°22'8 7.5
2017-Jan-18 04:34N 50°46' W 001°15'1212.5
2017-Jan-18 03:33N 50°39' W 000°58'1212.0
2017-Jan-18 02:33N 50°30' W 001°11'1515.5
2017-Jan-18 01:33N 50°24' W 001°33'1616.4
2017-Jan-18 00:33N 50°18' W 001°57'1615.5
2017-Jan-17 23:32N 50°06' W 002°12'1615.8
2017-Jan-17 22:32N 49°55' W 002°30'1424.7
2017-Jan-17 22:00N 49°48' W 002°48'511.2 050 / 161035.910.8 7.1 1.711.4
2017-Jan-17 21:33N 49°50' W 002°55'1716.7
2017-Jan-17 20:33N 49°40' W 003°16'6415.8
2017-Jan-17 16:31N 49°02' W 004°34'1515.2
2017-Jan-17 15:33N 48°53' W 004°52'1514.7
2017-Jan-17 14:33N 48°43' W 005°08'1514.7
2017-Jan-17 13:33N 48°32' W 005°23'1514.8
2017-Jan-17 12:33N 48°20' W 005°35'6317.6
2017-Jan-17 09:00N 47°24' W 006°18'19314.9 030 / 221031.2 5.4 11.5 9.512.8
2017-Jan-16 20:00N 44°36' W 008°36'16915.4 030 / 211030.910.8 12.0 7.913.9
2017-Jan-16 09:00N 41°54' W 009°42'14615.4 050 / 361032.627.0 13.0 5.615.1
2017-Jan-15 23:31N 39°28' W 009°46'1414.6
2017-Jan-15 22:33N 39°14' W 009°45'1514.5
2017-Jan-15 21:33N 38°59' W 009°44'1514.7
2017-Jan-15 20:33N 38°45' W 009°42'1212.2
2017-Jan-15 19:33N 38°36' W 009°31'1414.3
2017-Jan-15 18:33N 38°41' W 009°13'5 4.8
2017-Jan-15 17:31N 38°43' W 009°07'0 0.0
2017-Jan-15 16:31N 38°43' W 009°07'0 0.0
2017-Jan-15 15:31N 38°43' W 009°07'0 0.0
2017-Jan-15 14:31N 38°43' W 009°07'0 0.0
2017-Jan-15 13:31N 38°43' W 009°07'0 0.0
2017-Jan-15 12:25N 38°43' W 009°07'0 0.0
2017-Jan-15 11:31N 38°43' W 009°07'0 0.0
2017-Jan-15 10:31N 38°43' W 009°07'0 0.0
2017-Jan-15 09:31N 38°43' W 009°07'0 0.1
2017-Jan-15 08:33N 38°43' W 009°07'7 7.2
2017-Jan-15 07:33N 38°41' W 009°16'1413.9
2017-Jan-15 06:33N 38°29' W 009°26'1717.0
2017-Jan-15 05:33N 38°12' W 009°26'1716.9
2017-Jan-15 04:33N 37°56' W 009°25'1716.9
2017-Jan-15 03:33N 37°39' W 009°24'1017.3
2017-Jan-15 03:00N 37°30' W 009°18'6013.5 080 / 321030.210.8 13.0 1.317.0
2017-Jan-14 22:33N 36°41' W 008°34'1717.4
2017-Jan-14 21:33N 36°40' W 008°13'  
2017-Jan-12 04:00N 29°54' W 010°48'8614.4 010 / 31018.410.8 18.015.518.5
2017-Jan-11 22:00N 29°18' W 012°18'4412.8 360 / 301017.810.8 18.014.618.9
2017-Jan-11 18:33N 29°06' W 013°07'1815.5
2017-Jan-11 17:25N 28°58' W 013°24'7 1.6
2017-Jan-11 13:13N 28°58' W 013°32'0 0.0
2017-Jan-11 12:07N 28°58' W 013°32'0 0.0
2017-Jan-11 11:25N 28°58' W 013°32'0 0.0
2017-Jan-11 08:31N 28°58' W 013°32'  
Track history (hours):
 
Tides and Currents Weather Stations Pressure Air Temp Water Temp Dewpoint Dewpoint Depression Visibility Wind Speed Wind Dir Waves Ship Positions

Ventura

Last reported at 2017-Jan-21 08:00 UTC. Time now 2017-Jan-21 15:34 UTC.
Position N 41°54' W 012°48'.

Length 289 m; draft 8.6 m.

Type: Passenger vessel. MMSI: 310562000.

Wind from 340 at 15 knots

Barometer 1021.8 mb
Air temperature 13.4 ° C
Visibility: greater than 10.8 NM
Dewpoint 5.0 ° C
Water temperature 14.7 ° C

Date/timePositionNaut miles runAvg speedWind from/ knotsBaromVisibWave heightAir tempDewpointWater temp
2017-Jan-21 08:00N 41°54' W 012°48'314 9.5 340 / 151021.810.8 13.4 5.014.7
2017-Jan-19 23:00N 45°18' W 007°18'10317.2 120 / 261025.010.8 8.0 0.511.0
2017-Jan-19 17:00N 46°54' W 006°24'9217.0 070 / 331027.410.8
2017-Jan-19 11:33N 48°20' W 005°33'1425.2
2017-Jan-19 11:00N 48°30' W 005°18'510.8 030 / 241032.827.0 13.2 1.912.0
2017-Jan-19 10:33N 48°35' W 005°20'1615.8
2017-Jan-19 09:33N 48°46' W 005°03'1515.1
2017-Jan-19 08:33N 48°56' W 004°46'7145.4
2017-Jan-19 07:00N 49°12' W 003°00'3621.9 070 / 161033.910.8 12.5 2.111.8
2017-Jan-19 05:21N 49°30' W 003°48'1417.2
2017-Jan-19 04:33N 49°38' W 003°32'1717.3
2017-Jan-19 03:33N 49°49' W 003°11'1716.7
2017-Jan-19 02:33N 49°59' W 002°51'1615.6
2017-Jan-19 01:30N 50°05' W 002°27'1514.2
2017-Jan-19 00:29N 50°11' W 002°06'1213.5
2017-Jan-18 23:34N 50°17' W 001°49'1414.3
2017-Jan-18 22:34N 50°23' W 001°29'1515.1
2017-Jan-18 21:33N 50°30' W 001°07'1312.8
2017-Jan-18 20:33N 50°41' W 000°58'1413.7
2017-Jan-18 19:34N 50°47' W 001°18'9 8.8
2017-Jan-18 18:34N 50°54' W 001°26'0 0.3
2017-Jan-18 17:25N 50°54' W 001°26'0 0.0
2017-Jan-18 16:31N 50°54' W 001°26'0 0.0
2017-Jan-18 15:28N 50°54' W 001°26'0 0.0
2017-Jan-18 14:25N 50°54' W 001°26'0 0.0
2017-Jan-18 13:22N 50°54' W 001°26'0 0.0
2017-Jan-18 12:28N 50°54' W 001°26'0 0.0
2017-Jan-18 11:28N 50°54' W 001°26'0 0.0
2017-Jan-18 10:28N 50°54' W 001°26'0 0.0
2017-Jan-18 09:22N 50°54' W 001°26'0 0.0
2017-Jan-18 08:28N 50°54' W 001°26'0 0.0
2017-Jan-18 07:28N 50°54' W 001°26'0 0.0
2017-Jan-18 06:28N 50°54' W 001°26'3 3.6
2017-Jan-18 05:34N 50°52' W 001°22'8 7.5
2017-Jan-18 04:34N 50°46' W 001°15'1212.5
2017-Jan-18 03:33N 50°39' W 000°58'1212.0
2017-Jan-18 02:33N 50°30' W 001°11'1515.5
2017-Jan-18 01:33N 50°24' W 001°33'1616.4
2017-Jan-18 00:33N 50°18' W 001°57'1615.5
2017-Jan-17 23:32N 50°06' W 002°12'1615.8
2017-Jan-17 22:32N 49°55' W 002°30'1424.7
2017-Jan-17 22:00N 49°48' W 002°48'511.2 050 / 161035.910.8 7.1 1.711.4
2017-Jan-17 21:33N 49°50' W 002°55'1716.7
2017-Jan-17 20:33N 49°40' W 003°16'6415.8
2017-Jan-17 16:31N 49°02' W 004°34'1515.2
2017-Jan-17 15:33N 48°53' W 004°52'1514.7
2017-Jan-17 14:33N 48°43' W 005°08'1514.7
2017-Jan-17 13:33N 48°32' W 005°23'1514.8
2017-Jan-17 12:33N 48°20' W 005°35'6317.6
2017-Jan-17 09:00N 47°24' W 006°18'19314.9 030 / 221031.2 5.4 11.5 9.512.8
2017-Jan-16 20:00N 44°36' W 008°36'16915.4 030 / 211030.910.8 12.0 7.913.9
2017-Jan-16 09:00N 41°54' W 009°42'14615.4 050 / 361032.627.0 13.0 5.615.1
2017-Jan-15 23:31N 39°28' W 009°46'1414.6
2017-Jan-15 22:33N 39°14' W 009°45'1514.5
2017-Jan-15 21:33N 38°59' W 009°44'1514.7
2017-Jan-15 20:33N 38°45' W 009°42'1212.2
2017-Jan-15 19:33N 38°36' W 009°31'1414.3
2017-Jan-15 18:33N 38°41' W 009°13'5 4.8
2017-Jan-15 17:31N 38°43' W 009°07'0 0.0
2017-Jan-15 16:31N 38°43' W 009°07'0 0.0
2017-Jan-15 15:31N 38°43' W 009°07'0 0.0
2017-Jan-15 14:31N 38°43' W 009°07'0 0.0
2017-Jan-15 13:31N 38°43' W 009°07'0 0.0
2017-Jan-15 12:25N 38°43' W 009°07'0 0.0
2017-Jan-15 11:31N 38°43' W 009°07'0 0.0
2017-Jan-15 10:31N 38°43' W 009°07'0 0.0
2017-Jan-15 09:31N 38°43' W 009°07'0 0.1
2017-Jan-15 08:33N 38°43' W 009°07'7 7.2
2017-Jan-15 07:33N 38°41' W 009°16'1413.9
2017-Jan-15 06:33N 38°29' W 009°26'1717.0
2017-Jan-15 05:33N 38°12' W 009°26'1716.9
2017-Jan-15 04:33N 37°56' W 009°25'1716.9
2017-Jan-15 03:33N 37°39' W 009°24'1017.3
2017-Jan-15 03:00N 37°30' W 009°18'6013.5 080 / 321030.210.8 13.0 1.317.0
2017-Jan-14 22:33N 36°41' W 008°34'1717.4
2017-Jan-14 21:33N 36°40' W 008°13'  
2017-Jan-12 04:00N 29°54' W 010°48'8614.4 010 / 31018.410.8 18.015.518.5
2017-Jan-11 22:00N 29°18' W 012°18'4412.8 360 / 301017.810.8 18.014.618.9
2017-Jan-11 18:33N 29°06' W 013°07'1815.5
2017-Jan-11 17:25N 28°58' W 013°24'7 1.6
2017-Jan-11 13:13N 28°58' W 013°32'0 0.0
2017-Jan-11 12:07N 28°58' W 013°32'0 0.0
2017-Jan-11 11:25N 28°58' W 013°32'0 0.0
2017-Jan-11 08:31N 28°58' W 013°32'  

Dump ship's entire track history